Time;durP1;ratioP1;P1;durP2;ratioP2;P2;SDS_P1;SDS_P2;PMS_P1;PMS_P2;Temp;Humidity;BMP_temperature;BMP_pressure;BME280_temperature;BME280_humidity;BME280_pressure;Samples;Min_cycle;Max_cycle;Signal;HPM_P1;HPM_P2
2021/05/19 00:00:34;;;;;;;2.15;1.27;;;27.30;28.30;;;;;;4344112;33;20105;-30
2021/05/19 00:03:01;;;;;;;5.10;1.30;;;27.40;28.30;;;;;;4343386;33;20063;-30
2021/05/19 00:05:27;;;;;;;4.35;1.05;;;27.40;28.30;;;;;;4343797;33;20051;-31
2021/05/19 00:07:54;;;;;;;6.15;1.12;;;27.30;28.30;;;;;;4343836;33;20590;-31
2021/05/19 00:10:20;;;;;;;5.60;1.23;;;27.30;28.50;;;;;;4343811;33;20184;-30
2021/05/19 00:12:46;;;;;;;2.95;1.00;;;27.30;28.60;;;;;;4330084;33;20055;-33
2021/05/19 00:15:13;;;;;;;4.00;1.55;;;27.30;28.60;;;;;;4296360;33;20087;-30
2021/05/19 00:17:42;;;;;;;2.25;0.82;;;27.20;28.70;;;;;;4297129;33;20194;-30
2021/05/19 00:20:10;;;;;;;3.40;0.82;;;27.20;28.70;;;;;;4297140;33;20472;-32
2021/05/19 00:22:36;;;;;;;6.60;1.33;;;27.20;28.80;;;;;;4297251;33;20514;-35
2021/05/19 00:25:04;;;;;;;1.90;0.82;;;27.20;28.90;;;;;;4297341;33;20067;-32
2021/05/19 00:27:31;;;;;;;5.43;1.77;;;27.20;28.90;;;;;;4297049;33;20193;-33
2021/05/19 00:29:57;;;;;;;3.28;1.00;;;27.20;29.00;;;;;;4296975;33;20075;-32
2021/05/19 00:32:24;;;;;;;2.90;0.55;;;27.10;29.00;;;;;;4297220;33;20555;-32
2021/05/19 00:34:50;;;;;;;0.82;0.55;;;27.10;29.10;;;;;;4285614;33;20074;-31
2021/05/19 00:37:17;;;;;;;2.15;0.47;;;27.00;29.10;;;;;;4296940;33;20071;-32
2021/05/19 00:39:44;;;;;;;2.05;0.80;;;27.00;29.20;;;;;;4296805;33;20680;-31
2021/05/19 00:42:14;;;;;;;1.50;0.90;;;27.00;29.30;;;;;;4296849;33;20087;-31
2021/05/19 00:44:42;;;;;;;4.75;1.37;;;27.00;29.40;;;;;;4285035;33;20164;-31
2021/05/19 00:47:08;;;;;;;3.70;0.70;;;26.90;29.40;;;;;;4297131;33;20056;-31
2021/05/19 00:49:35;;;;;;;2.12;0.70;;;26.90;29.50;;;;;;4296561;33;20079;-32
2021/05/19 00:52:01;;;;;;;4.62;0.85;;;26.90;29.40;;;;;;4307365;33;20494;-33
2021/05/19 00:54:28;;;;;;;0.50;0.50;;;26.80;29.50;;;;;;4343019;33;20569;-32
2021/05/19 00:56:54;;;;;;;5.18;0.80;;;26.80;29.50;;;;;;4332804;32;20145;-31
2021/05/19 00:59:21;;;;;;;2.97;0.75;;;26.80;29.60;;;;;;4331969;32;20086;-33
2021/05/19 01:01:47;;;;;;;2.33;1.12;;;26.90;29.70;;;;;;4344162;32;20109;-35
2021/05/19 01:04:14;;;;;;;2.75;0.70;;;26.80;29.60;;;;;;4357909;32;20050;-31
2021/05/19 01:06:49;;;;;;;1.50;1.00;;;26.80;29.60;;;;;;4358204;32;20521;-31
2021/05/19 01:12:02;;;;;;;1.95;0.80;;;26.80;29.60;;;;;;4343569;32;20134;-33
2021/05/19 01:14:28;;;;;;;2.42;1.30;;;26.80;29.70;;;;;;4357807;32;20078;-31
2021/05/19 01:16:56;;;;;;;3.05;1.50;;;26.80;29.70;;;;;;4347273;32;20178;-32
2021/05/19 01:19:22;;;;;;;6.15;1.65;;;26.80;29.60;;;;;;4361054;32;20170;-32
2021/05/19 01:21:50;;;;;;;2.15;0.50;;;26.90;29.70;;;;;;4292416;33;20156;-31
2021/05/19 01:24:17;;;;;;;0.95;0.50;;;26.90;29.60;;;;;;4328886;33;20080;-33
2021/05/19 01:26:43;;;;;;;1.45;0.62;;;26.90;29.60;;;;;;4328263;33;20058;-30
2021/05/19 01:29:10;;;;;;;5.95;1.33;;;27.00;29.60;;;;;;4316448;33;20074;-32
2021/05/19 01:31:36;;;;;;;4.53;0.80;;;27.10;29.60;;;;;;4316315;33;20066;-30
2021/05/19 01:34:03;;;;;;;3.58;1.10;;;27.10;29.60;;;;;;4328613;33;20063;-32
2021/05/19 01:36:30;;;;;;;4.65;1.10;;;27.20;29.50;;;;;;4328832;33;20526;-29
2021/05/19 01:38:56;;;;;;;1.70;0.88;;;27.30;29.50;;;;;;4328881;33;20492;-30
2021/05/19 01:41:23;;;;;;;7.28;1.87;;;27.50;29.40;;;;;;4328689;33;20063;-31
2021/05/19 01:43:49;;;;;;;3.03;1.20;;;27.60;29.20;;;;;;4328482;33;20173;-30
2021/05/19 01:46:16;;;;;;;3.80;1.87;;;27.90;29.10;;;;;;4316091;33;20193;-30
2021/05/19 01:48:42;;;;;;;7.05;1.60;;;28.20;28.80;;;;;;4328435;33;20154;-32
2021/05/19 01:51:09;;;;;;;7.62;1.30;;;28.60;28.70;;;;;;4303986;33;20089;-33
2021/05/19 01:53:36;;;;;;;9.23;1.48;;;29.00;28.50;;;;;;4316860;32;20090;-32
2021/05/19 01:56:02;;;;;;;2.95;1.23;;;29.30;28.10;;;;;;4346481;32;20066;-30
2021/05/19 01:58:29;;;;;;;2.28;1.42;;;29.70;27.90;;;;;;4333764;33;20066;-31
2021/05/19 02:00:55;;;;;;;5.35;1.27;;;30.10;27.60;;;;;;4345420;33;20537;-31
2021/05/19 02:03:22;;;;;;;7.35;1.40;;;30.50;27.40;;;;;;4345393;33;20606;-32
2021/05/19 02:05:48;;;;;;;7.35;1.00;;;30.90;27.00;;;;;;4345603;33;20069;-32
2021/05/19 02:08:14;;;;;;;4.93;0.90;;;31.20;26.80;;;;;;4345058;33;20098;-33
2021/05/19 02:10:42;;;;;;;12.13;1.55;;;31.50;26.60;;;;;;4345701;33;20163;-31
2021/05/19 02:13:10;;;;;;;3.05;0.90;;;31.80;26.50;;;;;;4345112;33;20063;-35
2021/05/19 02:15:36;;;;;;;7.85;1.00;;;32.20;26.20;;;;;;4331295;33;20074;-33
2021/05/19 02:18:04;;;;;;;5.22;1.00;;;32.50;26.10;;;;;;4345213;33;20063;-33
2021/05/19 02:20:30;;;;;;;3.03;0.98;;;32.90;25.70;;;;;;4345768;33;20078;-31
2021/05/19 02:22:57;;;;;;;6.50;1.23;;;33.10;25.60;;;;;;4345379;33;20075;-31
2021/05/19 02:25:23;;;;;;;2.33;0.90;;;33.40;25.40;;;;;;4345025;32;20070;-32
2021/05/19 02:27:51;;;;;;;2.85;0.77;;;33.50;25.20;;;;;;4345072;33;20069;-31
2021/05/19 02:30:18;;;;;;;4.18;1.05;;;33.70;25.10;;;;;;4345273;33;20079;-33
2021/05/19 02:32:45;;;;;;;2.28;1.02;;;33.70;25.10;;;;;;4344936;33;20078;-33
2021/05/19 02:35:12;;;;;;;6.75;1.00;;;33.90;25.10;;;;;;4344761;33;20152;-31
2021/05/19 02:37:40;;;;;;;6.82;1.08;;;34.00;25.10;;;;;;4345072;33;20059;-32
2021/05/19 02:40:07;;;;;;;4.70;0.98;;;34.20;25.00;;;;;;4345414;33;20127;-31
2021/05/19 02:42:34;;;;;;;6.47;0.90;;;34.40;24.70;;;;;;4331075;33;20059;-31
2021/05/19 02:45:00;;;;;;;2.83;0.98;;;34.60;24.60;;;;;;4331441;33;20058;-32
2021/05/19 02:47:27;;;;;;;3.33;1.05;;;34.90;24.60;;;;;;4331307;33;20074;-34
2021/05/19 02:49:54;;;;;;;3.75;0.90;;;35.10;24.40;;;;;;4344765;33;20051;-33
2021/05/19 02:52:20;;;;;;;1.70;0.90;;;35.20;24.30;;;;;;4344790;33;20066;-32
2021/05/19 02:54:46;;;;;;;15.75;1.12;;;35.40;24.20;;;;;;4344763;33;20071;-34
2021/05/19 02:57:13;;;;;;;6.68;0.82;;;35.50;24.10;;;;;;4323996;32;20517;-31
2021/05/19 02:59:39;;;;;;;13.30;1.30;;;35.70;24.20;;;;;;4359768;32;20144;-31
2021/05/19 03:02:06;;;;;;;8.68;1.10;;;35.70;24.00;;;;;;4359743;32;20093;-30
2021/05/19 03:04:33;;;;;;;3.20;0.80;;;36.00;24.10;;;;;;4359809;32;20063;-32
2021/05/19 03:06:59;;;;;;;5.00;1.30;;;36.10;24.00;;;;;;4359695;32;20152;-31
2021/05/19 03:09:26;;;;;;;3.22;0.90;;;36.30;23.90;;;;;;4359302;32;20063;-31
2021/05/19 03:11:52;;;;;;;4.15;1.00;;;36.50;23.60;;;;;;4359245;32;20074;-31
2021/05/19 03:14:19;;;;;;;2.80;1.48;;;36.80;23.50;;;;;;4312079;33;20170;-31
2021/05/19 03:16:45;;;;;;;2.95;0.90;;;37.10;23.30;;;;;;4312532;33;20091;-33
2021/05/19 03:19:11;;;;;;;7.28;1.37;;;37.20;23.20;;;;;;4312736;33;20099;-30
2021/05/19 03:21:38;;;;;;;2.25;1.33;;;37.20;23.30;;;;;;4312102;33;20179;-32
2021/05/19 03:24:05;;;;;;;4.43;0.90;;;37.40;23.20;;;;;;4312160;33;20504;-30
2021/05/19 03:26:32;;;;;;;5.18;0.95;;;37.50;23.00;;;;;;4312889;33;20163;-30
2021/05/19 03:28:59;;;;;;;17.35;3.47;;;37.70;23.00;;;;;;4312313;33;20073;-31
2021/05/19 03:31:25;;;;;;;3.08;1.20;;;38.00;23.00;;;;;;4312297;33;20239;-32
2021/05/19 03:33:51;;;;;;;5.57;2.45;;;38.30;22.70;;;;;;4312200;33;20110;-32
2021/05/19 03:36:18;;;;;;;6.40;1.10;;;38.50;22.60;;;;;;4311735;33;20070;-36
2021/05/19 03:38:44;;;;;;;2.05;1.12;;;38.60;22.50;;;;;;4311562;33;20110;-37
2021/05/19 03:41:11;;;;;;;4.28;0.80;;;38.60;22.40;;;;;;4312388;33;20079;-45
2021/05/19 03:43:37;;;;;;;3.22;0.70;;;38.70;22.60;;;;;;4312179;33;20523;-32
2021/05/19 03:46:04;;;;;;;8.95;1.05;;;38.80;22.40;;;;;;4312205;33;20146;-30
2021/05/19 03:48:30;;;;;;;5.35;0.90;;;38.90;22.50;;;;;;4312072;33;20072;-33
2021/05/19 03:50:57;;;;;;;5.03;0.85;;;38.90;22.60;;;;;;4317411;33;20091;-33
2021/05/19 03:53:23;;;;;;;3.55;0.80;;;39.00;22.40;;;;;;4343933;32;20538;-30
2021/05/19 03:55:50;;;;;;;4.57;0.90;;;39.00;22.40;;;;;;4343954;33;20070;-32
2021/05/19 03:58:16;;;;;;;3.83;0.73;;;39.10;22.50;;;;;;4330288;33;20099;-33
2021/05/19 04:00:44;;;;;;;9.43;1.42;;;39.30;22.20;;;;;;4327504;33;20491;-32
2021/05/19 04:03:10;;;;;;;12.73;1.87;;;39.40;22.40;;;;;;4328708;33;20055;-31
2021/05/19 04:05:37;;;;;;;21.60;2.08;;;39.60;22.30;;;;;;4311626;33;20079;-31
2021/05/19 04:08:05;;;;;;;4.43;0.90;;;39.50;22.10;;;;;;4312013;33;20075;-30
2021/05/19 04:10:32;;;;;;;2.22;0.90;;;39.40;22.20;;;;;;4311984;33;20082;-32
2021/05/19 04:13:00;;;;;;;6.62;0.98;;;39.30;22.10;;;;;;4311682;33;20185;-30
2021/05/19 04:15:26;;;;;;;2.08;0.82;;;39.30;22.30;;;;;;4311364;33;20075;-30
2021/05/19 04:17:53;;;;;;;5.80;1.17;;;39.30;22.20;;;;;;4299604;33;20523;-32
2021/05/19 04:20:20;;;;;;;2.92;0.98;;;39.40;22.20;;;;;;4296667;33;20178;-31
2021/05/19 04:22:46;;;;;;;2.95;0.95;;;39.50;22.20;;;;;;4297124;33;20141;-32
2021/05/19 04:25:14;;;;;;;7.90;1.23;;;39.80;22.50;;;;;;4297250;33;20090;-32
2021/05/19 04:27:40;;;;;;;13.52;1.37;;;39.80;22.20;;;;;;4296985;33;20121;-32
2021/05/19 04:30:08;;;;;;;4.75;0.98;;;40.00;22.20;;;;;;4297206;33;20162;-34
2021/05/19 04:32:35;;;;;;;1.95;0.85;;;40.00;22.10;;;;;;4285169;33;20060;-34
2021/05/19 04:35:03;;;;;;;3.10;1.10;;;40.00;22.10;;;;;;4297159;33;20095;-30
2021/05/19 04:37:29;;;;;;;3.95;1.00;;;40.10;22.00;;;;;;4296803;33;20465;-31
2021/05/19 04:39:56;;;;;;;4.65;0.75;;;40.20;22.10;;;;;;4296636;33;20517;-31
2021/05/19 04:42:22;;;;;;;1.75;0.93;;;40.40;22.40;;;;;;4303501;33;20538;-33
2021/05/19 04:44:49;;;;;;;3.00;0.90;;;40.60;22.60;;;;;;4325767;33;20098;-32
2021/05/19 04:47:15;;;;;;;1.67;0.70;;;40.70;22.50;;;;;;4325894;33;20067;-31
2021/05/19 04:49:42;;;;;;;7.00;1.20;;;40.70;22.30;;;;;;4326211;33;20168;-32
2021/05/19 04:52:08;;;;;;;5.78;0.85;;;40.70;22.20;;;;;;4328188;33;20083;-32
2021/05/19 04:54:34;;;;;;;6.22;0.93;;;40.60;22.40;;;;;;4326038;33;20079;-32
2021/05/19 04:57:01;;;;;;;4.72;1.10;;;40.60;22.20;;;;;;4329950;33;20680;-32
2021/05/19 04:59:27;;;;;;;5.53;1.00;;;40.60;22.00;;;;;;4340672;33;20078;-32
2021/05/19 05:01:54;;;;;;;9.43;1.00;;;40.60;22.20;;;;;;4340782;33;20078;-31
2021/05/19 05:04:20;;;;;;;9.13;1.45;;;40.50;22.10;;;;;;4340712;33;20169;-32
2021/05/19 05:06:47;;;;;;;6.25;1.17;;;40.30;22.20;;;;;;4340575;33;20063;-32
2021/05/19 05:09:13;;;;;;;4.40;1.12;;;40.10;22.10;;;;;;4340832;33;20187;-31
2021/05/19 05:11:40;;;;;;;6.12;0.77;;;40.00;21.90;;;;;;4341130;33;20074;-31
2021/05/19 05:14:06;;;;;;;5.40;1.00;;;40.00;22.20;;;;;;4340343;33;20107;-31
2021/05/19 05:16:35;;;;;;;8.05;1.00;;;40.30;22.40;;;;;;4340157;33;20066;-31
2021/05/19 05:19:02;;;;;;;4.15;0.70;;;40.60;22.20;;;;;;4340432;33;20083;-33
2021/05/19 05:21:29;;;;;;;4.78;0.90;;;41.00;21.70;;;;;;4340188;33;20106;-31
2021/05/19 05:23:56;;;;;;;6.90;1.48;;;41.40;21.60;;;;;;4340604;33;20510;-32
2021/05/19 05:26:22;;;;;;;8.85;1.35;;;41.60;22.40;;;;;;4340661;33;20117;-30
2021/05/19 05:28:48;;;;;;;12.35;1.70;;;41.40;22.70;;;;;;4340461;33;20054;-31
2021/05/19 05:31:15;;;;;;;8.48;1.37;;;40.80;23.00;;;;;;4328957;33;20168;-31
2021/05/19 05:33:41;;;;;;;9.32;1.87;;;40.10;23.50;;;;;;4342950;32;20071;-31
2021/05/19 05:36:08;;;;;;;8.43;1.50;;;39.50;24.00;;;;;;4342844;32;20070;-31
2021/05/19 05:38:35;;;;;;;6.28;1.52;;;39.20;24.40;;;;;;4342468;32;20051;-30
2021/05/19 05:41:01;;;;;;;9.80;1.20;;;38.90;24.60;;;;;;4343129;32;20087;-31
2021/05/19 05:43:28;;;;;;;6.70;1.40;;;38.70;24.70;;;;;;4342663;32;20063;-32
2021/05/19 05:45:54;;;;;;;5.03;1.20;;;38.50;24.40;;;;;;4342388;32;20094;-33
2021/05/19 05:48:21;;;;;;;3.20;1.23;;;38.50;23.90;;;;;;4355075;32;20074;-33
2021/05/19 05:50:47;;;;;;;10.25;1.45;;;38.70;24.30;;;;;;4342556;32;20520;-30
2021/05/19 05:53:13;;;;;;;8.52;1.30;;;39.10;24.20;;;;;;4354688;32;20602;-31
2021/05/19 05:55:40;;;;;;;4.50;1.25;;;39.50;24.20;;;;;;4355331;32;20078;-32
2021/05/19 05:58:06;;;;;;;9.38;1.10;;;40.00;24.40;;;;;;4332095;33;20077;-30
2021/05/19 06:00:33;;;;;;;3.55;1.05;;;40.40;24.10;;;;;;4340303;32;20098;-31
2021/05/19 06:02:59;;;;;;;4.68;1.27;;;40.80;23.70;;;;;;4343145;33;20070;-31
2021/05/19 06:05:26;;;;;;;8.50;2.22;;;41.10;23.70;;;;;;4343140;33;20145;-31
2021/05/19 06:07:52;;;;;;;5.65;1.55;;;41.30;23.60;;;;;;4342750;33;20098;-32
2021/05/19 06:10:18;;;;;;;4.65;1.20;;;41.30;23.50;;;;;;4331046;33;20077;-32
2021/05/19 06:12:45;;;;;;;6.78;1.37;;;41.30;23.40;;;;;;4342460;33;20130;-31
2021/05/19 06:15:12;;;;;;;6.45;1.08;;;41.30;23.20;;;;;;4342555;33;20075;-31
2021/05/19 06:17:38;;;;;;;8.57;1.35;;;41.30;23.60;;;;;;4342694;33;20222;-31
2021/05/19 06:20:06;;;;;;;9.27;1.20;;;41.30;23.70;;;;;;4342760;33;20558;-31
2021/05/19 06:22:32;;;;;;;6.65;1.15;;;41.40;23.00;;;;;;4328338;33;20139;-31
2021/05/19 06:24:58;;;;;;;6.05;1.23;;;41.50;22.30;;;;;;4330275;33;20149;-31
2021/05/19 06:27:25;;;;;;;6.47;1.98;;;41.70;22.90;;;;;;4330049;33;20095;-31
2021/05/19 06:29:51;;;;;;;4.80;1.30;;;42.00;23.30;;;;;;4330059;33;20543;-30
2021/05/19 06:32:18;;;;;;;11.38;1.90;;;42.30;23.20;;;;;;4329999;33;20194;-31
2021/05/19 06:34:44;;;;;;;4.65;1.08;;;42.30;22.80;;;;;;4328948;33;20083;-31
2021/05/19 06:37:11;;;;;;;5.87;0.85;;;42.30;21.90;;;;;;4330516;33;20082;-32
2021/05/19 06:39:37;;;;;;;2.30;0.90;;;42.40;21.90;;;;;;4330474;33;20526;-31
2021/05/19 06:42:04;;;;;;;4.65;0.80;;;42.50;21.70;;;;;;4316190;33;20085;-29
2021/05/19 06:44:31;;;;;;;3.65;1.08;;;42.50;21.60;;;;;;4330094;33;20068;-30
2021/05/19 06:46:58;;;;;;;7.07;0.98;;;42.60;21.50;;;;;;4330043;33;20528;-30
2021/05/19 06:49:24;;;;;;;3.60;1.10;;;42.70;21.90;;;;;;4328288;33;20051;-30
2021/05/19 06:51:50;;;;;;;6.60;0.95;;;42.90;21.50;;;;;;4329648;33;20054;-32
2021/05/19 06:54:17;;;;;;;2.80;1.05;;;43.00;21.30;;;;;;4329513;33;20051;-31
2021/05/19 06:56:46;;;;;;;4.68;0.90;;;43.20;21.30;;;;;;4332196;33;20070;-33
2021/05/19 06:59:17;;;;;;;3.87;0.80;;;43.40;21.30;;;;;;4344815;32;20500;-33
2021/05/19 07:01:44;;;;;;;4.82;1.05;;;43.50;21.20;;;;;;4344816;32;20615;-32
2021/05/19 07:04:11;;;;;;;7.40;1.52;;;43.60;21.30;;;;;;4344453;32;20163;-31
2021/05/19 07:06:38;;;;;;;10.43;1.33;;;43.70;21.10;;;;;;4344348;32;20161;-30
2021/05/19 07:09:05;;;;;;;7.30;1.00;;;44.00;21.20;;;;;;4344264;32;20162;-31
2021/05/19 07:11:32;;;;;;;7.40;0.80;;;44.20;20.90;;;;;;4344350;32;20074;-31
2021/05/19 07:14:00;;;;;;;9.77;1.45;;;44.50;21.10;;;;;;4343020;33;20160;-31
2021/05/19 07:16:27;;;;;;;2.12;1.20;;;44.70;20.80;;;;;;4356298;32;20059;-30
2021/05/19 07:18:55;;;;;;;3.42;1.00;;;44.80;20.90;;;;;;4359266;32;20564;-29
2021/05/19 07:21:22;;;;;;;2.80;0.80;;;45.00;20.60;;;;;;4358895;32;20070;-30
2021/05/19 07:23:50;;;;;;;6.60;0.98;;;45.10;20.60;;;;;;4345571;32;20078;-32
2021/05/19 07:26:17;;;;;;;2.20;0.95;;;45.30;20.90;;;;;;4358880;32;20090;-30
2021/05/19 07:28:44;;;;;;;6.37;1.00;;;45.30;20.60;;;;;;4359015;32;20108;-34
2021/05/19 07:31:10;;;;;;;7.37;0.90;;;45.40;20.70;;;;;;4359092;32;20592;-31
2021/05/19 07:33:36;;;;;;;2.12;0.80;;;45.50;20.40;;;;;;4344983;32;20092;-31
2021/05/19 07:36:04;;;;;;;4.95;0.98;;;45.50;20.70;;;;;;4359040;32;20154;-31
2021/05/19 07:38:30;;;;;;;2.05;0.90;;;45.40;20.40;;;;;;4358724;32;20078;-31
2021/05/19 07:40:56;;;;;;;2.40;0.75;;;45.20;20.40;;;;;;4311741;33;20201;-30
2021/05/19 07:43:23;;;;;;;3.30;0.80;;;45.10;20.50;;;;;;4311994;33;20154;-31
2021/05/19 07:45:50;;;;;;;7.50;1.10;;;45.00;20.40;;;;;;4312463;33;20071;-32
